Time;durP1;ratioP1;P1;durP2;ratioP2;P2;SDS_P1;SDS_P2;PMS_P1;PMS_P2;Temp;Humidity;BMP_temperature;BMP_pressure;BME280_temperature;BME280_humidity;BME280_pressure;Samples;Min_cycle;Max_cycle;Signal;HPM_P1;HPM_P2
2022/09/30 00:00:07;;;;;;;7.83;6.43;;;;;;;-143.84;77.07;45115.72;5090399;28;20839;-70
2022/09/30 00:02:35;;;;;;;7.80;6.67;;;;;;;-143.84;77.43;45096.66;5090115;28;20808;-71
2022/09/30 00:05:02;;;;;;;18.97;6.80;;;;;;;-143.84;77.66;45121.44;5090044;28;20514;-70
2022/09/30 00:07:29;;;;;;;8.93;7.03;;;;;;;-143.84;77.62;45083.34;5089474;28;20440;-70
2022/09/30 00:09:57;;;;;;;7.60;6.90;;;;;;;-143.84;77.78;45094.78;5089755;28;20520;-70
2022/09/30 00:12:26;;;;;;;15.83;7.40;;;;;;;-143.84;77.28;45079.53;5090232;28;20478;-70
2022/09/30 00:14:53;;;;;;;12.20;7.90;;;;;;;-143.84;77.56;45113.81;5089816;28;20458;-70
2022/09/30 00:17:20;;;;;;;13.53;8.30;;;;;;;-143.84;77.82;45092.88;5090118;28;20436;-70
2022/09/30 00:19:49;;;;;;;16.10;8.10;;;;;;;-143.84;78.02;45090.97;5090062;28;20432;-70
2022/09/30 00:22:16;;;;;;;16.33;9.00;;;;;;;-143.84;78.20;45094.78;5089696;28;20508;-70
2022/09/30 00:24:45;;;;;;;15.17;7.53;;;;;;;-143.84;78.47;45079.53;5089956;28;20839;-70
2022/09/30 00:27:16;;;;;;;10.67;7.43;;;;;;;-143.84;78.75;45092.88;5089955;28;20548;-70
2022/09/30 00:29:44;;;;;;;9.90;8.27;;;;;;;-143.84;78.90;45089.06;5089582;28;20451;-70
2022/09/30 00:32:12;;;;;;;11.30;8.23;;;;;;;-143.84;78.93;45110.00;5089835;28;20487;-70
2022/09/30 00:34:39;;;;;;;15.83;8.57;;;;;;;-143.84;79.17;45102.38;5089877;28;20436;-71
2022/09/30 00:37:10;;;;;;;15.27;7.10;;;;;;;-143.84;79.16;45102.38;5089709;28;20447;-70
2022/09/30 00:39:37;;;;;;;16.30;9.23;;;;;;;-143.84;79.05;45087.16;5089404;28;20817;-70
2022/09/30 00:42:07;;;;;;;11.77;7.97;;;;;;;-143.84;79.09;45085.25;5089260;28;20497;-70
2022/09/30 00:44:53;;;;;;;17.17;9.50;;;;;;;-143.84;79.62;45110.00;5089188;28;20499;-70
2022/09/30 00:47:46;;;;;;;20.97;10.37;;;;;;;-143.84;79.95;45104.28;5082473;28;20460;-70
2022/09/30 00:50:36;;;;;;;18.10;10.33;;;;;;;-143.84;80.53;45089.06;5069083;28;20440;-70
2022/09/30 00:53:15;;;;;;;15.43;9.17;;;;;;;-143.84;80.76;45075.72;5068290;28;20479;-70
2022/09/30 00:55:51;;;;;;;18.37;9.60;;;;;;;-143.84;80.66;45115.72;5069057;28;20453;-70
2022/09/30 00:58:24;;;;;;;13.30;8.63;;;;;;;-143.84;80.36;45077.63;5068807;28;20705;-70
2022/09/30 01:00:52;;;;;;;8.60;7.83;;;;;;;-143.84;79.93;45106.19;5069000;28;20992;-70
2022/09/30 01:03:23;;;;;;;8.27;7.40;;;;;;;-143.84;79.33;45100.47;5068920;28;20473;-70
2022/09/30 01:05:51;;;;;;;10.20;7.97;;;;;;;-143.84;79.03;45094.78;5068840;28;20478;-70
2022/09/30 01:08:21;;;;;;;8.83;7.80;;;;;;;-143.84;79.16;45083.34;5068756;28;20496;-70
2022/09/30 01:10:48;;;;;;;23.23;8.60;;;;;;;-143.84;79.62;45092.88;5069275;28;20445;-70
2022/09/30 01:13:17;;;;;;;14.73;8.20;;;;;;;-143.84;79.98;45079.53;5068873;28;20444;-70
2022/09/30 01:15:58;;;;;;;22.90;8.33;;;;;;;-143.84;80.11;45098.56;5068656;28;20444;-70
2022/09/30 01:18:34;;;;;;;16.53;8.30;;;;;;;-143.84;80.01;45104.28;5068727;28;20519;-70
2022/09/30 01:21:17;;;;;;;13.10;8.03;;;;;;;-143.84;80.04;45087.16;5068815;28;20497;-70
2022/09/30 01:24:20;;;;;;;12.40;7.20;;;;;;;-143.84;79.59;45079.53;5068916;28;20480;-70
2022/09/30 01:27:18;;;;;;;8.03;7.07;;;;;;;-143.84;78.98;45117.63;5068725;28;20476;-70
2022/09/30 01:30:07;;;;;;;10.70;6.40;;;;;;;-143.84;78.94;45106.19;5068594;28;20457;-70
2022/09/30 01:32:49;;;;;;;15.03;6.73;;;;;;;-143.84;78.34;45094.78;5068646;28;20491;-70
2022/09/30 01:35:26;;;;;;;10.13;6.20;;;;;;;-143.84;78.17;45117.63;5068541;28;20453;-70
2022/09/30 01:38:02;;;;;;;7.57;5.73;;;;;;;-143.84;77.73;45106.19;5068269;28;20495;-70
2022/09/30 01:40:40;;;;;;;9.13;5.87;;;;;;;-143.84;77.14;45090.97;5068217;28;20432;-70
2022/09/30 01:43:13;;;;;;;13.83;5.90;;;;;;;-143.84;76.80;45134.75;5067631;28;20433;-70
2022/09/30 01:45:44;;;;;;;8.60;5.70;;;;;;;-143.84;76.49;45113.81;5067602;28;20488;-70
2022/09/30 01:48:20;;;;;;;12.33;6.00;;;;;;;-143.84;76.29;45098.56;5068416;28;20448;-70
2022/09/30 01:50:53;;;;;;;7.13;4.20;;;;;;;-143.84;76.21;45111.91;5068195;28;20494;-70
2022/09/30 01:53:27;;;;;;;13.80;5.87;;;;;;;-143.84;76.26;45138.56;5068255;28;20897;-70
2022/09/30 01:56:00;;;;;;;12.43;5.63;;;;;;;-143.84;75.55;45110.00;5067827;28;20445;-70
2022/09/30 01:58:37;;;;;;;7.43;4.70;;;;;;;-143.84;74.73;45111.91;5068002;28;20514;-70
2022/09/30 02:01:09;;;;;;;4.73;3.97;;;;;;;-143.84;74.49;45140.47;5068443;28;20490;-70
2022/09/30 02:03:42;;;;;;;8.07;4.63;;;;;;;-143.84;74.25;45106.19;5067127;28;20476;-70
2022/09/30 02:06:15;;;;;;;7.10;4.80;;;;;;;-143.84;74.08;45098.56;5067595;28;20441;-70
2022/09/30 02:08:47;;;;;;;4.57;3.90;;;;;;;-143.84;74.14;45108.09;5068159;28;20456;-70
2022/09/30 02:11:18;;;;;;;9.60;4.00;;;;;;;-143.84;74.46;45127.13;5068275;28;20449;-70
2022/09/30 02:13:50;;;;;;;5.30;4.37;;;;;;;-143.84;74.20;45098.56;5068285;28;21018;-70
2022/09/30 02:16:23;;;;;;;4.40;4.00;;;;;;;-143.84;74.06;45108.09;5068289;28;20441;-70
2022/09/30 02:18:56;;;;;;;9.40;4.23;;;;;;;-143.84;73.93;45127.13;5068199;28;20436;-70
2022/09/30 02:21:28;;;;;;;4.90;4.40;;;;;;;-143.84;73.87;45125.22;5068596;28;20445;-73
2022/09/30 02:24:00;;;;;;;6.60;3.73;;;;;;;-143.84;73.77;45096.66;5068126;28;20537;-74
2022/09/30 02:26:32;;;;;;;6.70;4.10;;;;;;;-143.84;73.67;45110.00;5067955;28;20441;-73
2022/09/30 02:29:04;;;;;;;10.10;4.33;;;;;;;-143.84;73.54;45102.38;5068271;28;20477;-73
2022/09/30 02:31:36;;;;;;;6.60;3.63;;;;;;;-143.84;73.64;45121.44;5068706;28;20432;-73
2022/09/30 02:34:08;;;;;;;12.60;4.63;;;;;;;-143.84;73.61;45113.81;5071528;28;21244;-73
2022/09/30 02:36:41;;;;;;;9.10;4.10;;;;;;;-143.84;73.48;45104.28;5071727;28;20935;-73
2022/09/30 02:39:16;;;;;;;4.50;3.80;;;;;;;-143.84;73.26;45108.09;5071442;28;20447;-74
2022/09/30 02:41:48;;;;;;;9.50;4.03;;;;;;;-143.84;73.22;45096.66;5071629;28;20521;-74
2022/09/30 02:44:17;;;;;;;5.10;4.03;;;;;;;-143.84;73.32;45123.34;5072244;28;20488;-77
2022/09/30 02:46:54;;;;;;;9.67;3.77;;;;;;;-143.84;73.20;45125.22;5075453;28;20467;-77
2022/09/30 02:49:30;;;;;;;6.03;3.87;;;;;;;-143.84;73.10;45083.34;5093406;28;20431;-77
2022/09/30 02:52:14;;;;;;;13.10;4.80;;;;;;;-143.84;72.98;45111.91;5093162;28;21307;-77
2022/09/30 02:54:48;;;;;;;6.93;4.73;;;;;;;-143.84;72.48;45096.66;5092965;28;20538;-77
2022/09/30 02:57:20;;;;;;;5.90;5.33;;;;;;;-143.84;72.51;45111.91;5093250;28;20435;-77
2022/09/30 02:59:50;;;;;;;8.50;4.97;;;;;;;-143.84;72.70;45083.34;5093116;28;20431;-77
2022/09/30 03:02:17;;;;;;;4.77;4.07;;;;;;;-143.84;72.84;45096.66;5093169;28;20446;-77
2022/09/30 03:04:48;;;;;;;11.53;4.83;;;;;;;-143.84;72.99;45108.09;5092518;28;20471;-77
2022/09/30 03:07:15;;;;;;;5.87;4.43;;;;;;;-143.84;73.08;45102.38;5092906;28;20447;-77
2022/09/30 03:09:43;;;;;;;9.93;4.00;;;;;;;-143.84;73.31;45111.91;5092734;28;20436;-77
2022/09/30 03:12:22;;;;;;;19.77;4.13;;;;;;;-143.84;73.36;45106.19;5093114;28;20509;-77
2022/09/30 03:15:16;;;;;;;10.70;5.00;;;;;;;-143.84;72.96;45087.16;5092892;28;20537;-77
2022/09/30 03:18:11;;;;;;;11.93;6.40;;;;;;;-143.84;73.02;45119.53;5092737;28;20448;-77
2022/09/30 03:20:51;;;;;;;10.10;6.00;;;;;;;-143.84;73.06;45121.44;5092408;28;20493;-76
2022/09/30 03:24:06;;;;;;;13.07;6.57;;;;;;;-143.84;73.12;45096.66;5092446;28;20440;-77
2022/09/30 03:26:42;;;;;;;9.90;4.90;;;;;;;-143.84;73.24;45129.03;5092630;28;20447;-77
2022/09/30 03:29:20;;;;;;;6.13;4.77;;;;;;;-143.84;73.28;45117.63;5092554;28;20439;-74
2022/09/30 03:32:00;;;;;;;12.17;4.80;;;;;;;-143.84;72.95;45096.66;5090618;28;20496;-73
2022/09/30 03:34:34;;;;;;;5.93;4.43;;;;;;;-143.84;73.19;45113.81;5090666;28;20463;-73
2022/09/30 03:37:11;;;;;;;7.80;6.17;;;;;;;-143.84;73.47;45100.47;5090886;28;20443;-74
2022/09/30 03:39:54;;;;;;;20.47;13.57;;;;;;;-143.84;73.17;45110.00;5090481;28;20444;-72
2022/09/30 03:42:27;;;;;;;18.17;11.77;;;;;;;-143.84;72.55;45104.28;5090254;28;20482;-73
2022/09/30 03:45:04;;;;;;;11.40;9.20;;;;;;;-143.84;72.54;45119.53;5090133;28;20502;-73
2022/09/30 03:47:33;;;;;;;11.17;6.67;;;;;;;-143.84;72.46;45089.06;5090515;28;20451;-74
2022/09/30 03:50:05;;;;;;;8.27;5.43;;;;;;;-143.84;72.50;45106.19;5090313;28;20497;-74
2022/09/30 03:52:35;;;;;;;9.97;4.67;;;;;;;-143.84;72.00;45092.88;5090223;28;20946;-77
2022/09/30 03:55:06;;;;;;;10.70;4.30;;;;;;;-143.84;71.92;45108.09;5072216;28;20460;-73
2022/09/30 03:57:34;;;;;;;20.40;4.87;;;;;;;-143.84;71.82;45121.44;5071562;28;20433;-73
2022/09/30 04:00:02;;;;;;;6.20;5.07;;;;;;;-143.84;72.15;45098.56;5076750;28;21141;-74
2022/09/30 04:02:29;;;;;;;7.70;4.57;;;;;;;-143.84;72.48;45106.19;5072099;28;20513;-74
2022/09/30 04:04:56;;;;;;;7.70;4.60;;;;;;;-143.84;72.55;45094.78;5089701;28;20472;-73
2022/09/30 04:07:23;;;;;;;8.63;5.37;;;;;;;-143.84;72.70;45096.66;5090099;28;20444;-75
2022/09/30 04:09:52;;;;;;;7.77;4.93;;;;;;;-143.84;72.37;45096.66;5089933;28;20447;-75
2022/09/30 04:12:19;;;;;;;4.20;3.77;;;;;;;-143.84;72.05;45108.09;5075901;28;20441;-77
2022/09/30 04:14:47;;;;;;;5.70;3.73;;;;;;;-143.84;70.60;45108.09;5069894;28;20524;-75
2022/09/30 04:17:14;;;;;;;10.30;3.93;;;;;;;-143.84;70.62;45106.19;5069863;28;20503;-75
2022/09/30 04:19:41;;;;;;;20.57;4.87;;;;;;;-143.84;70.12;45087.16;5069157;28;20445;-75
2022/09/30 04:22:08;;;;;;;8.27;3.60;;;;;;;-143.84;69.76;45102.38;5069360;28;21011;-75
2022/09/30 04:24:38;;;;;;;3.80;3.50;;;;;;;-143.84;70.37;45089.06;5070129;28;20468;-75
2022/09/30 04:27:06;;;;;;;10.43;4.50;;;;;;;-143.84;69.28;45096.66;5069305;28;20440;-74
2022/09/30 04:29:33;;;;;;;5.17;4.20;;;;;;;-143.84;69.39;45108.09;5068662;28;20494;-74
2022/09/30 04:32:01;;;;;;;8.70;5.07;;;;;;;-143.84;69.82;45090.97;5068423;28;20875;-75
2022/09/30 04:34:28;;;;;;;27.23;6.00;;;;;;;-143.84;70.48;45104.28;5068547;28;20867;-73
2022/09/30 04:36:55;;;;;;;14.10;5.83;;;;;;;-143.84;70.46;45106.19;5069157;28;20444;-76
2022/09/30 04:39:22;;;;;;;21.40;6.37;;;;;;;-143.84;70.53;45098.56;5071021;28;20494;-75
2022/09/30 04:41:52;;;;;;;11.77;6.27;;;;;;;-143.84;71.11;45104.28;5071116;28;20833;-77
2022/09/30 04:44:22;;;;;;;22.00;6.57;;;;;;;-143.84;72.01;45096.66;5069802;28;20542;-77
2022/09/30 04:46:49;;;;;;;17.97;5.20;;;;;;;-143.84;72.41;45110.00;5071247;28;20900;-77
2022/09/30 04:49:16;;;;;;;9.60;5.73;;;;;;;-143.84;72.64;45110.00;5075305;28;20437;-77
2022/09/30 04:51:44;;;;;;;10.20;6.60;;;;;;;-143.84;73.36;45098.56;5078318;28;20967;-77
2022/09/30 04:54:13;;;;;;;15.90;7.20;;;;;;;-143.84;72.40;45068.13;5070650;28;20441;-78
2022/09/30 04:56:40;;;;;;;21.57;6.53;;;;;;;-143.84;72.99;45117.63;5071226;28;20508;-78
2022/09/30 04:59:07;;;;;;;14.93;7.03;;;;;;;-143.84;72.45;45100.47;5070753;28;20433;-78
2022/09/30 05:01:38;;;;;;;13.27;5.97;;;;;;;-143.84;71.96;45090.97;5071096;28;20437;-78
2022/09/30 05:04:05;;;;;;;24.73;6.80;;;;;;;-143.84;71.93;45100.47;5070554;28;20507;-77
2022/09/30 05:06:32;;;;;;;15.10;6.40;;;;;;;-143.84;72.44;45098.56;5069629;28;20436;-77
2022/09/30 05:08:59;;;;;;;17.03;6.60;;;;;;;-143.84;71.11;45081.44;5069359;28;20494;-78
2022/09/30 05:11:26;;;;;;;11.80;6.87;;;;;;;-143.84;70.31;45090.97;5069925;28;20996;-77
2022/09/30 05:13:54;;;;;;;16.53;5.43;;;;;;;-143.84;69.72;45071.91;5069971;28;20435;-77
2022/09/30 05:16:22;;;;;;;9.80;6.10;;;;;;;-143.84;69.42;45077.63;5069591;28;20447;-78
2022/09/30 05:18:50;;;;;;;11.93;5.97;;;;;;;-143.84;70.46;45062.41;5069338;28;20473;-77
2022/09/30 05:21:19;;;;;;;13.73;5.57;;;;;;;-143.84;69.54;45054.78;5069475;28;20448;-78
2022/09/30 05:23:47;;;;;;;15.13;5.90;;;;;;;-143.84;67.58;45073.81;5069241;28;20798;-78
2022/09/30 05:26:14;;;;;;;9.80;5.33;;;;;;;-143.84;67.62;45056.69;5069716;28;20471;-78
2022/09/30 05:28:42;;;;;;;16.43;5.27;;;;;;;-143.84;67.24;45075.72;5069906;28;20867;-78
2022/09/30 05:31:11;;;;;;;12.30;4.47;;;;;;;-143.84;64.90;45052.88;5070063;28;20429;-78
2022/09/30 05:33:38;;;;;;;12.57;4.50;;;;;;;-143.84;63.88;45054.78;5069615;28;20447;-77
2022/09/30 05:36:09;;;;;;;7.47;3.60;;;;;;;-143.84;59.61;45043.34;5069655;28;20514;-78
2022/09/30 05:38:36;;;;;;;7.87;4.23;;;;;;;-143.84;55.52;45050.97;5069212;28;20422;-78
2022/09/30 05:41:10;;;;;;;7.03;3.87;;;;;;;-143.84;55.17;45033.84;5069440;28;20858;-78
2022/09/30 05:43:39;;;;;;;14.93;4.87;;;;;;;-143.84;52.51;45054.78;5069084;28;20455;-79
2022/09/30 05:46:06;;;;;;;10.77;4.30;;;;;;;-143.84;50.63;45007.19;5071509;28;20483;-77
2022/09/30 05:48:34;;;;;;;13.23;5.47;;;;;;;-143.84;52.01;45041.44;5073261;28;20471;-78
2022/09/30 05:51:01;;;;;;;11.90;4.67;;;;;;;-143.84;52.26;45031.94;5071441;28;20437;-78
2022/09/30 05:53:31;;;;;;;20.77;4.77;;;;;;;-143.84;52.21;45003.38;5072783;28;20861;-78
2022/09/30 05:55:59;;;;;;;12.33;5.57;;;;;;;-143.84;45.47;45003.38;5092700;28;20546;-78
2022/09/30 05:58:26;;;;;;;14.07;4.20;;;;;;;-143.84;46.34;45028.13;5092822;28;20448;-77
2022/09/30 06:00:54;;;;;;;8.03;4.00;;;;;;;-143.84;46.30;45030.03;5098257;28;20439;-77
2022/09/30 06:03:21;;;;;;;8.33;4.83;;;;;;;-143.84;42.77;44999.56;5100090;28;20448;-77
2022/09/30 06:05:48;;;;;;;6.33;4.63;;;;;;;-143.84;42.25;45005.28;5100502;28;20521;-77
2022/09/30 06:08:16;;;;;;;9.13;5.60;;;;;;;-143.84;41.98;45003.38;5103946;28;20435;-77
2022/09/30 06:10:45;;;;;;;16.17;5.53;;;;;;;-143.84;41.11;45007.19;5103685;28;20461;-77
2022/09/30 06:13:12;;;;;;;10.30;5.23;;;;;;;-143.84;41.42;44993.84;5085221;28;20453;-77
2022/09/30 06:15:40;;;;;;;11.27;4.17;;;;;;;-143.84;40.11;44988.13;5084086;28;20444;-77
2022/09/30 06:18:07;;;;;;;8.30;4.90;;;;;;;-143.84;41.32;44995.75;5083604;28;20447;-77
2022/09/30 06:20:35;;;;;;;12.43;4.53;;;;;;;-143.84;40.10;45007.19;5079722;28;20505;-71
2022/09/30 06:23:02;;;;;;;10.70;4.13;;;;;;;-143.84;39.52;45016.69;5071018;28;20486;-71
2022/09/30 06:25:30;;;;;;;8.07;3.60;;;;;;;-143.84;39.65;44995.75;5071461;28;20476;-71
2022/09/30 06:27:59;;;;;;;9.87;2.90;;;;;;;-143.84;38.92;44995.75;5071749;28;20876;-71
2022/09/30 06:30:27;;;;;;;5.20;2.83;;;;;;;-143.84;38.44;44967.19;5071091;28;20456;-75
2022/09/30 06:32:57;;;;;;;4.00;2.50;;;;;;;-143.84;37.79;45001.47;5070954;28;20498;-76
2022/09/30 06:35:27;;;;;;;4.30;2.53;;;;;;;-143.84;37.84;44976.72;5072359;28;20445;-76
2022/09/30 06:37:55;;;;;;;5.30;3.13;;;;;;;-143.84;37.43;44972.91;5071413;28;21061;-76
2022/09/30 06:40:22;;;;;;;5.60;3.10;;;;;;;-143.84;38.62;44967.19;5071568;28;20486;-76
2022/09/30 06:42:49;;;;;;;6.87;2.80;;;;;;;-143.84;37.07;44965.28;5076005;28;20440;-76
2022/09/30 06:45:20;;;;;;;3.07;2.80;;;;;;;-143.84;37.27;44965.28;5091544;28;20491;-76
2022/09/30 06:47:50;;;;;;;6.70;3.40;;;;;;;-143.84;36.79;44963.38;5081745;28;20495;-76
2022/09/30 06:50:18;;;;;;;8.00;3.17;;;;;;;-143.84;36.41;44980.53;5071423;28;20942;-76
2022/09/30 06:52:45;;;;;;;3.50;2.47;;;;;;;-143.84;36.38;44953.88;5071047;28;20850;-76
2022/09/30 06:55:12;;;;;;;11.73;4.13;;;;;;;-143.84;37.61;44942.44;5071303;28;20934;-76
2022/09/30 06:57:42;;;;;;;18.90;4.83;;;;;;;-143.84;37.24;44971.00;5071314;28;20441;-76
2022/09/30 07:00:10;;;;;;;10.40;4.57;;;;;;;-143.84;37.81;44976.72;5071270;28;20996;-76
2022/09/30 07:02:39;;;;;;;15.17;4.50;;;;;;;-143.84;38.48;44967.19;5070913;28;20433;-76
2022/09/30 07:05:07;;;;;;;7.57;4.27;;;;;;;-143.84;37.62;44944.34;5071010;28;21009;-76
2022/09/30 07:07:35;;;;;;;20.10;4.40;;;;;;;-143.84;38.80;44957.66;5070663;28;20453;-76
2022/09/30 07:10:03;;;;;;;12.00;4.40;;;;;;;-143.84;37.86;44986.22;5071089;28;20490;-76
2022/09/30 07:12:31;;;;;;;6.63;3.83;;;;;;;-143.84;37.24;44959.56;5070998;28;21108;-75
2022/09/30 07:14:58;;;;;;;5.57;2.70;;;;;;;-143.84;36.97;44976.72;5071197;28;20439;-75
2022/09/30 07:17:26;;;;;;;6.90;3.90;;;;;;;-143.84;37.59;44917.69;5070255;28;20470;-71
2022/09/30 07:19:54;;;;;;;9.53;3.80;;;;;;;-143.84;37.91;44950.06;5070105;28;20440;-72
2022/09/30 07:22:28;;;;;;;8.90;4.10;;;;;;;-143.84;37.36;44957.66;5069575;28;20510;-71
2022/09/30 07:24:56;;;;;;;4.87;3.77;;;;;;;-143.84;37.26;44938.63;5069827;28;20437;-71
2022/09/30 07:27:24;;;;;;;3.53;3.07;;;;;;;-143.84;36.96;44986.22;5070834;28;20536;-72
2022/09/30 07:29:51;;;;;;;13.03;4.17;;;;;;;-143.84;38.86;44976.72;5070852;28;20448;-72
2022/09/30 07:32:19;;;;;;;6.90;3.20;;;;;;;-143.84;37.81;44969.09;5070640;28;20467;-72
2022/09/30 07:34:46;;;;;;;7.60;3.93;;;;;;;-143.84;38.09;44978.63;5070558;28;20441;-71
2022/09/30 07:37:17;;;;;;;5.13;3.33;;;;;;;-143.84;37.42;44950.06;5070246;28;20934;-72
2022/09/30 07:39:46;;;;;;;8.60;3.70;;;;;;;-143.84;38.46;44967.19;5070344;28;20494;-71
2022/09/30 07:42:20;;;;;;;4.80;3.40;;;;;;;-143.84;37.48;44988.13;5070604;28;20441;-71
2022/09/30 07:44:47;;;;;;;7.57;3.07;;;;;;;-143.84;37.83;44974.81;5070336;28;20486;-71
2022/09/30 07:47:15;;;;;;;5.70;3.43;;;;;;;-143.84;37.29;44942.44;5070655;28;20493;-71
2022/09/30 07:49:43;;;;;;;8.10;4.00;;;;;;;-143.84;37.91;44963.38;5070605;28;20437;-71
2022/09/30 07:52:12;;;;;;;11.03;3.73;;;;;;;-143.84;37.87;44967.19;5069747;28;20429;-71
2022/09/30 07:54:42;;;;;;;11.43;4.50;;;;;;;-143.84;37.45;44955.75;5070309;28;20839;-72
2022/09/30 07:57:09;;;;;;;12.83;4.80;;;;;;;-143.84;37.51;44940.53;5069733;28;20815;-71
2022/09/30 07:59:39;;;;;;;5.27;3.20;;;;;;;-143.84;38.11;44965.28;5069916;28;20441;-71
2022/09/30 08:02:07;;;;;;;5.20;3.60;;;;;;;-143.84;36.87;44978.63;5071096;28;20445;-77
2022/09/30 08:04:35;;;;;;;12.50;4.00;;;;;;;-143.84;36.50;44948.16;5070335;28;20445;-71
2022/09/30 08:07:04;;;;;;;6.10;4.40;;;;;;;-143.84;35.99;44942.44;5070184;28;20484;-71
2022/09/30 08:09:31;;;;;;;9.87;4.20;;;;;;;-143.84;36.84;44961.47;5069869;28;20468;-71
2022/09/30 08:12:08;;;;;;;8.07;3.60;;;;;;;-143.84;37.53;44917.69;5069213;28;20784;-71
2022/09/30 08:14:39;;;;;;;6.33;3.73;;;;;;;-143.84;35.62;44953.88;5068175;28;20432;-72
2022/09/30 08:17:11;;;;;;;6.73;3.60;;;;;;;-143.84;35.73;44942.44;5069767;28;20443;-71
2022/09/30 08:19:42;;;;;;;12.70;4.03;;;;;;;-143.84;36.07;44940.53;5068988;28;20509;-71
2022/09/30 08:22:12;;;;;;;7.07;4.10;;;;;;;-143.84;35.96;44942.44;5069598;28;20815;-72
2022/09/30 08:24:39;;;;;;;7.47;3.93;;;;;;;-143.84;36.10;44946.25;5069610;28;20479;-71
2022/09/30 08:27:07;;;;;;;9.17;3.90;;;;;;;-143.84;36.44;44906.25;5068903;28;20542;-71
2022/09/30 08:29:34;;;;;;;7.63;4.30;;;;;;;-143.84;36.74;44934.81;5067161;28;20449;-71
2022/09/30 08:32:02;;;;;;;10.00;3.97;;;;;;;-143.84;37.40;44925.31;5068308;28;20453;-71
2022/09/30 08:34:33;;;;;;;6.90;4.20;;;;;;;-143.84;36.12;44904.34;5067917;28;20506;-71
2022/09/30 08:37:01;;;;;;;9.17;4.70;;;;;;;-143.84;36.79;44921.50;5068400;28;20547;-71
2022/09/30 08:39:28;;;;;;;8.80;3.90;;;;;;;-143.84;37.35;44942.44;5068334;28;20516;-71
2022/09/30 08:42:09;;;;;;;6.60;3.90;;;;;;;-143.84;36.53;44911.97;5068320;28;20490;-72
2022/09/30 08:44:44;;;;;;;11.83;5.40;;;;;;;-143.84;35.91;44906.25;5069234;28;20484;-71
2022/09/30 08:47:31;;;;;;;14.03;5.27;;;;;;;-143.84;35.96;44910.06;5072414;28;20498;-71
2022/09/30 08:50:09;;;;;;;9.17;4.13;;;;;;;-143.84;35.68;44944.34;5089192;28;20459;-71
2022/09/30 08:52:40;;;;;;;6.27;3.90;;;;;;;-143.84;35.98;44950.06;5089259;28;20463;-71
2022/09/30 08:55:14;;;;;;;6.27;3.90;;;;;;;-143.84;36.34;44940.53;5089616;28;20846;-71
2022/09/30 08:57:44;;;;;;;5.17;4.07;;;;;;;-143.84;36.82;44946.25;5089230;28;20489;-71
2022/09/30 09:00:15;;;;;;;9.50;4.13;;;;;;;-143.84;36.84;44942.44;5089144;28;20485;-68
2022/09/30 09:02:46;;;;;;;14.83;4.33;;;;;;;-143.84;37.61;44948.16;5089002;28;20926;-68
2022/09/30 09:05:24;;;;;;;6.07;4.93;;;;;;;-143.84;37.66;44972.91;5089122;28;20819;-68
2022/09/30 09:08:02;;;;;;;13.23;4.57;;;;;;;-143.84;38.09;44959.56;5089080;28;20942;-68
2022/09/30 09:10:41;;;;;;;5.87;4.97;;;;;;;-143.84;38.04;44959.56;5089219;28;20526;-68
2022/09/30 09:13:18;;;;;;;11.23;4.30;;;;;;;-143.84;39.07;44944.34;5088935;28;20440;-68
2022/09/30 09:16:02;;;;;;;5.33;4.67;;;;;;;-143.84;37.64;44925.31;5089108;28;20530;-69
2022/09/30 09:18:59;;;;;;;6.90;5.80;;;;;;;-143.84;38.04;44961.47;5088814;28;20436;-68
2022/09/30 09:21:34;;;;;;;8.50;4.80;;;;;;;-143.84;38.58;44953.88;5089083;28;20436;-68
2022/09/30 09:24:03;;;;;;;10.57;5.30;;;;;;;-143.84;37.66;44938.63;5088840;28;20442;-68
2022/09/30 09:26:35;;;;;;;8.60;4.93;;;;;;;-143.84;38.67;44955.75;5089045;28;20503;-68
2022/09/30 09:29:20;;;;;;;10.80;5.00;;;;;;;-143.84;38.18;44942.44;5088793;28;20443;-68
2022/09/30 09:31:49;;;;;;;12.77;4.43;;;;;;;-143.84;38.17;44980.53;5088797;28;20861;-68
2022/09/30 09:34:16;;;;;;;14.10;4.93;;;;;;;-143.84;38.75;44974.81;5088699;28;20505;-68
2022/09/30 09:36:58;;;;;;;7.93;5.30;;;;;;;-143.84;38.47;44961.47;5088830;28;20957;-68
2022/09/30 09:40:03;;;;;;;8.20;5.27;;;;;;;-143.84;38.98;44923.41;5088978;28;20444;-68
2022/09/30 09:42:52;;;;;;;9.73;5.60;;;;;;;-143.84;38.90;44942.44;5030011;28;20518;-69
2022/09/30 09:45:28;;;;;;;7.47;5.00;;;;;;;-143.84;38.05;44963.38;5029834;28;20532;-69
2022/09/30 09:47:59;;;;;;;8.43;4.93;;;;;;;-143.84;38.77;44934.81;5058977;28;20456;-69
2022/09/30 09:50:38;;;;;;;8.90;4.57;;;;;;;-143.84;38.09;44923.41;5072560;28;20942;-69
2022/09/30 09:53:29;;;;;;;14.30;4.80;;;;;;;-143.84;37.36;44927.19;5072394;28;20445;-68
2022/09/30 09:55:59;;;;;;;8.00;4.93;;;;;;;-143.84;38.18;44944.34;5072621;28;20448;-69
2022/09/30 09:58:27;;;;;;;11.23;4.80;;;;;;;-143.84;38.13;44919.59;5072308;28;20432;-69
2022/09/30 10:01:30;;;;;;;7.63;4.67;;;;;;;-143.84;38.11;44906.25;5072455;28;20437;-69
2022/09/30 10:04:14;;;;;;;10.80;4.87;;;;;;;-143.84;38.44;44934.81;5072325;28;20855;-68
2022/09/30 10:06:47;;;;;;;7.50;5.17;;;;;;;-143.84;38.83;44942.44;5072344;28;20480;-69
2022/09/30 10:09:26;;;;;;;9.93;5.27;;;;;;;-143.84;37.82;44911.97;5071594;28;21036;-69
2022/09/30 10:12:29;;;;;;;11.53;5.70;;;;;;;-143.84;37.95;44925.31;5071476;28;20498;-69
2022/09/30 10:15:00;;;;;;;10.00;5.37;;;;;;;-143.84;37.58;44904.34;5071303;28;20440;-69
2022/09/30 10:17:29;;;;;;;7.70;4.53;;;;;;;-143.84;37.75;44919.59;5072220;28;20513;-69
2022/09/30 10:20:05;;;;;;;14.83;5.03;;;;;;;-143.84;39.26;44932.91;5071974;28;20440;-69
2022/09/30 10:22:33;;;;;;;11.67;6.20;;;;;;;-143.84;37.08;44910.06;5071821;28;20444;-69
2022/09/30 10:25:23;;;;;;;12.73;5.50;;;;;;;-143.84;39.57;44902.44;5071832;28;20440;-69
2022/09/30 10:27:54;;;;;;;11.67;7.20;;;;;;;-143.84;40.00;44915.78;5071910;28;20487;-69
2022/09/30 10:30:42;;;;;;;11.70;7.27;;;;;;;-143.84;41.71;44915.78;5071674;28;20822;-69
2022/09/30 10:33:16;;;;;;;8.67;7.87;;;;;;;-143.84;41.31;44955.75;5071701;28;20436;-69
2022/09/30 10:35:56;;;;;;;10.67;8.50;;;;;;;-143.84;43.25;44927.19;5071605;28;20437;-69
2022/09/30 10:38:25;;;;;;;12.47;8.50;;;;;;;-143.84;42.97;44944.34;5071531;28;20449;-69
2022/09/30 10:40:52;;;;;;;11.23;8.70;;;;;;;-143.84;42.89;44950.06;5071370;28;20440;-69
2022/09/30 10:43:25;;;;;;;8.60;7.53;;;;;;;-143.84;44.48;44957.66;5071380;28;20474;-69
2022/09/30 10:45:54;;;;;;;9.83;7.70;;;;;;;-143.84;43.41;44948.16;5071070;28;20463;-69
2022/09/30 10:48:25;;;;;;;11.50;7.20;;;;;;;-143.84;43.02;44953.88;5070688;28;20491;-69
2022/09/30 10:50:55;;;;;;;12.83;6.83;;;;;;;-143.84;42.13;44948.16;5071262;28;20440;-69
2022/09/30 10:53:28;;;;;;;10.33;5.90;;;;;;;-143.84;42.12;44951.97;5070154;28;20441;-69
2022/09/30 10:55:56;;;;;;;10.00;6.60;;;;;;;-143.84;41.64;44980.53;5071080;28;20467;-69
2022/09/30 10:58:30;;;;;;;9.00;6.30;;;;;;;-143.84;41.29;44923.41;5071158;28;20540;-69
2022/09/30 11:01:04;;;;;;;11.53;6.53;;;;;;;-143.84;41.63;44957.66;5070520;28;20437;-69
2022/09/30 11:03:39;;;;;;;12.30;5.70;;;;;;;-143.84;41.54;44942.44;5070577;28;20448;-69
2022/09/30 11:06:13;;;;;;;8.20;5.93;;;;;;;-143.84;40.64;44921.50;5071218;28;20447;-69
2022/09/30 11:08:48;;;;;;;14.50;6.30;;;;;;;-143.84;40.49;44944.34;5071271;28;20444;-69
2022/09/30 11:11:21;;;;;;;6.13;5.50;;;;;;;-143.84;40.61;44925.31;5070896;28;20440;-69
2022/09/30 11:13:56;;;;;;;6.50;4.73;;;;;;;-143.84;40.01;44965.28;5070758;28;20448;-69
2022/09/30 11:16:31;;;;;;;6.70;6.00;;;;;;;-143.84;40.12;44932.91;5070832;28;20522;-69
2022/09/30 11:19:05;;;;;;;10.63;5.20;;;;;;;-143.84;39.66;44934.81;5071029;28;20506;-69
2022/09/30 11:21:41;;;;;;;13.43;5.87;;;;;;;-143.84;39.49;44934.81;5071001;28;20432;-69
2022/09/30 11:24:22;;;;;;;6.67;4.90;;;;;;;-143.84;39.45;44931.00;5070963;28;20441;-69
2022/09/30 11:27:02;;;;;;;6.13;5.40;;;;;;;-143.84;39.09;44951.97;5070539;28;20626;-69
2022/09/30 11:29:54;;;;;;;4.90;4.50;;;;;;;-143.84;39.05;44955.75;5070466;28;20460;-69
2022/09/30 11:32:34;;;;;;;4.87;4.57;;;;;;;-143.84;38.86;44950.06;5070702;28;20445;-69
2022/09/30 11:35:16;;;;;;;7.30;4.87;;;;;;;-143.84;39.37;44967.19;5070489;28;20966;-69
2022/09/30 11:38:09;;;;;;;5.23;4.80;;;;;;;-143.84;39.59;44961.47;5070364;28;20939;-68